createdAt,value
2023-02-07T00:00:07.137Z,4.72
2023-02-07T00:02:41.710Z,4.70
2023-02-07T00:05:08.137Z,4.69
2023-02-07T00:07:34.598Z,4.68
2023-02-07T00:10:00.966Z,4.54
2023-02-07T00:12:27.410Z,4.47
2023-02-07T00:14:53.802Z,4.40
2023-02-07T00:17:20.213Z,4.50
2023-02-07T00:19:46.597Z,4.54
2023-02-07T00:22:12.970Z,4.52
2023-02-07T00:24:39.422Z,4.53
2023-02-07T00:27:06.021Z,4.54
2023-02-07T00:29:32.798Z,4.52
2023-02-07T00:31:59.499Z,4.38
2023-02-07T00:34:26.001Z,4.41
2023-02-07T00:36:52.452Z,4.29
2023-02-07T00:39:19.192Z,4.28
2023-02-07T00:41:45.919Z,4.36
2023-02-07T00:44:12.463Z,4.38
2023-02-07T00:46:39.333Z,4.37
2023-02-07T00:49:06.400Z,4.38
2023-02-07T00:51:33.256Z,4.36
2023-02-07T00:53:59.813Z,4.35
2023-02-07T00:56:27.198Z,4.18
2023-02-07T00:58:53.707Z,4.23
2023-02-07T01:01:20.571Z,4.29
2023-02-07T01:03:47.512Z,4.31
2023-02-07T01:06:14.158Z,4.33
2023-02-07T01:08:40.643Z,4.28
2023-02-07T01:11:09.165Z,4.26
2023-02-07T01:13:37.537Z,4.25
2023-02-07T01:16:04.360Z,4.28
2023-02-07T01:18:30.815Z,4.21
2023-02-07T01:20:57.219Z,4.19
2023-02-07T01:23:23.686Z,4.18
2023-02-07T01:25:50.112Z,4.13
2023-02-07T01:28:16.605Z,4.08
2023-02-07T01:30:44.555Z,4.00
2023-02-07T01:33:11.126Z,4.00
2023-02-07T01:35:38.591Z,4.03
2023-02-07T01:38:05.186Z,4.01
2023-02-07T01:40:31.630Z,3.98
2023-02-07T01:42:58.421Z,3.98
2023-02-07T01:45:34.263Z,3.97
2023-02-07T01:48:03.342Z,3.94
2023-02-07T01:50:30.182Z,3.95
2023-02-07T01:52:58.182Z,3.92
2023-02-07T01:55:27.864Z,3.89
2023-02-07T01:57:54.473Z,3.91
2023-02-07T02:00:21.856Z,3.87
2023-02-07T02:02:48.320Z,3.82
2023-02-07T02:05:16.476Z,3.82
2023-02-07T02:07:43.012Z,3.81
2023-02-07T02:10:22.740Z,3.76
2023-02-07T02:13:11.787Z,3.74
2023-02-07T02:15:42.191Z,3.73
2023-02-07T02:18:18.733Z,3.68
2023-02-07T02:21:04.122Z,3.66
2023-02-07T02:23:32.853Z,3.68
2023-02-07T02:26:02.068Z,3.67
2023-02-07T02:28:40.998Z,3.65
2023-02-07T02:31:07.447Z,3.61
2023-02-07T02:33:41.428Z,3.58
2023-02-07T02:36:13.955Z,3.57
2023-02-07T02:38:59.485Z,3.54
2023-02-07T02:41:45.233Z,3.52
2023-02-07T02:44:14.637Z,3.49
2023-02-07T02:46:42.546Z,3.48
2023-02-07T02:49:12.008Z,3.46
2023-02-07T02:51:38.534Z,3.42
2023-02-07T02:54:24.968Z,3.40
2023-02-07T02:56:51.407Z,3.41
2023-02-07T02:59:30.737Z,3.37
2023-02-07T03:02:26.876Z,3.31
2023-02-07T03:04:56.151Z,3.29
2023-02-07T03:07:25.546Z,3.33
2023-02-07T03:10:07.581Z,3.31
2023-02-07T03:12:47.241Z,3.29
2023-02-07T03:15:16.685Z,3.28
2023-02-07T03:17:43.534Z,3.23
2023-02-07T03:20:19.525Z,3.23
2023-02-07T03:22:46.641Z,3.16
2023-02-07T03:25:14.683Z,3.19
2023-02-07T03:27:41.943Z,3.15
2023-02-07T03:30:10.720Z,3.14
2023-02-07T03:32:38.508Z,3.12
2023-02-07T03:35:20.593Z,3.11
2023-02-07T03:37:49.769Z,3.14
2023-02-07T03:40:16.392Z,3.10
2023-02-07T03:42:42.761Z,3.07
2023-02-07T03:45:11.889Z,3.05
2023-02-07T03:47:38.401Z,3.02
2023-02-07T03:50:04.981Z,2.99
2023-02-07T03:52:31.431Z,2.96
2023-02-07T03:54:57.833Z,2.96
2023-02-07T03:57:24.303Z,2.97
2023-02-07T03:59:50.778Z,2.94
2023-02-07T04:02:17.255Z,2.88
2023-02-07T04:04:43.675Z,2.86
2023-02-07T04:07:10.716Z,2.87
2023-02-07T04:09:37.192Z,2.83
2023-02-07T04:12:04.237Z,2.84
2023-02-07T04:14:30.640Z,2.88
2023-02-07T04:16:57.072Z,2.83
2023-02-07T04:19:23.528Z,2.81
2023-02-07T04:21:50.010Z,2.79
2023-02-07T04:24:16.559Z,2.73
2023-02-07T04:26:43.105Z,2.76
2023-02-07T04:29:09.790Z,2.73
2023-02-07T04:31:37.613Z,2.71
2023-02-07T04:34:05.791Z,2.67
2023-02-07T04:36:32.216Z,2.67
2023-02-07T04:38:58.700Z,2.65
2023-02-07T04:41:25.165Z,2.66
2023-02-07T04:43:51.562Z,2.60
2023-02-07T04:46:17.939Z,2.59
2023-02-07T04:48:44.422Z,2.56
2023-02-07T04:51:11.428Z,2.57
2023-02-07T04:53:37.850Z,2.57
2023-02-07T04:56:04.441Z,2.49
2023-02-07T04:58:30.844Z,2.50
2023-02-07T05:00:57.348Z,2.41
2023-02-07T05:03:23.742Z,2.33
2023-02-07T05:05:52.491Z,2.34
2023-02-07T05:08:18.982Z,2.35
2023-02-07T05:10:45.980Z,2.41
2023-02-07T05:13:12.409Z,2.42
2023-02-07T05:15:39.139Z,2.38
2023-02-07T05:18:05.991Z,2.38
2023-02-07T05:20:32.582Z,2.41
2023-02-07T05:22:58.991Z,2.42
2023-02-07T05:25:25.429Z,2.41
2023-02-07T05:27:51.852Z,2.42
2023-02-07T05:30:18.520Z,2.42
2023-02-07T05:33:03.561Z,2.44
2023-02-07T05:35:31.220Z,2.41
2023-02-07T05:37:58.023Z,2.39
2023-02-07T05:40:26.028Z,2.37
2023-02-07T05:42:52.439Z,2.36
2023-02-07T05:45:19.052Z,2.34
2023-02-07T05:47:45.428Z,2.32
2023-02-07T05:50:11.811Z,2.34
2023-02-07T05:52:38.180Z,2.34
2023-02-07T05:55:05.188Z,2.32
2023-02-07T05:57:31.906Z,2.30
2023-02-07T05:59:58.347Z,2.26
2023-02-07T06:02:24.856Z,2.26
2023-02-07T06:04:51.230Z,2.19
2023-02-07T06:07:17.682Z,2.02
2023-02-07T06:09:44.066Z,1.86
2023-02-07T06:12:10.558Z,1.86
2023-02-07T06:14:36.972Z,1.93
2023-02-07T06:17:03.429Z,1.99
2023-02-07T06:19:29.811Z,1.98
2023-02-07T06:21:56.243Z,1.97
2023-02-07T06:24:22.643Z,1.95
2023-02-07T06:26:49.026Z,1.93
2023-02-07T06:29:15.545Z,1.93
2023-02-07T06:31:42.054Z,1.95
2023-02-07T06:34:08.531Z,1.96
2023-02-07T06:36:34.905Z,1.96
2023-02-07T06:39:01.297Z,1.95
2023-02-07T06:41:27.778Z,1.94
2023-02-07T06:43:54.192Z,1.95
2023-02-07T06:46:20.671Z,1.97
2023-02-07T06:48:47.144Z,1.95
2023-02-07T06:51:13.657Z,1.94
2023-02-07T06:53:40.140Z,1.91
2023-02-07T06:56:06.699Z,1.95
2023-02-07T06:58:34.118Z,1.93
2023-02-07T07:01:04.437Z,1.92
2023-02-07T07:03:31.039Z,1.94
2023-02-07T07:05:58.218Z,1.90
2023-02-07T07:08:25.348Z,1.88
2023-02-07T07:10:51.851Z,1.87
2023-02-07T07:13:18.298Z,1.88
2023-02-07T07:15:45.094Z,1.88
2023-02-07T07:18:11.540Z,1.81
2023-02-07T07:20:37.925Z,1.81
2023-02-07T07:23:04.334Z,1.82
2023-02-07T07:25:30.852Z,1.80
2023-02-07T07:27:57.695Z,1.82
2023-02-07T07:30:24.262Z,1.80
2023-02-07T07:32:50.748Z,1.82
2023-02-07T07:35:18.845Z,1.83
2023-02-07T07:37:45.991Z,1.83
2023-02-07T07:40:12.464Z,1.80
2023-02-07T07:42:39.556Z,1.78
2023-02-07T07:45:20.007Z,1.76
2023-02-07T07:47:46.493Z,1.73
2023-02-07T07:50:12.863Z,1.75
2023-02-07T07:52:39.245Z,1.71
2023-02-07T07:55:05.862Z,1.71
2023-02-07T07:57:32.285Z,1.69
2023-02-07T07:59:58.839Z,1.68
2023-02-07T08:02:25.361Z,1.67
2023-02-07T08:04:51.839Z,1.69
2023-02-07T08:07:18.244Z,1.65
2023-02-07T08:09:44.679Z,1.67
2023-02-07T08:12:11.086Z,1.68
2023-02-07T08:14:37.463Z,1.67
2023-02-07T08:17:04.040Z,1.63
2023-02-07T08:19:30.493Z,1.59
2023-02-07T08:21:56.900Z,1.60
2023-02-07T08:24:24.573Z,1.65
2023-02-07T08:26:51.559Z,1.64
2023-02-07T08:29:17.940Z,1.63
2023-02-07T08:31:44.329Z,1.64
2023-02-07T08:34:12.009Z,1.64
2023-02-07T08:36:39.450Z,1.59
2023-02-07T08:39:06.793Z,1.61
2023-02-07T08:41:33.338Z,1.63
2023-02-07T08:43:59.719Z,1.62
2023-02-07T08:46:26.219Z,1.68
2023-02-07T08:48:52.610Z,1.66
2023-02-07T08:51:19.077Z,1.67
2023-02-07T08:53:45.485Z,1.64
2023-02-07T08:56:11.979Z,1.74
2023-02-07T08:58:39.931Z,1.74
2023-02-07T09:01:10.994Z,1.74
2023-02-07T09:03:38.039Z,1.74
2023-02-07T09:06:04.682Z,1.79
2023-02-07T09:08:31.424Z,1.79
2023-02-07T09:10:57.871Z,1.79
2023-02-07T09:13:24.288Z,1.80
2023-02-07T09:15:55.520Z,1.79
2023-02-07T09:18:22.224Z,1.84
2023-02-07T09:20:48.624Z,1.87
2023-02-07T09:23:20.948Z,1.86
2023-02-07T09:25:48.162Z,1.83
2023-02-07T09:28:14.642Z,1.86
2023-02-07T09:30:45.283Z,1.88
2023-02-07T09:33:12.793Z,1.90
2023-02-07T09:35:40.136Z,2.02
2023-02-07T09:38:07.125Z,2.00
2023-02-07T09:40:34.464Z,2.06
2023-02-07T09:43:10.213Z,2.02
2023-02-07T09:45:39.524Z,2.07
2023-02-07T09:48:17.454Z,2.10
2023-02-07T09:50:52.536Z,2.17
2023-02-07T09:53:22.857Z,2.11
2023-02-07T09:55:51.169Z,2.14
2023-02-07T09:58:20.442Z,2.27
2023-02-07T10:00:53.748Z,2.31
2023-02-07T10:03:21.812Z,2.29
2023-02-07T10:05:52.354Z,2.31
2023-02-07T10:08:19.464Z,2.32
2023-02-07T10:10:46.114Z,2.40
2023-02-07T10:13:28.543Z,2.51
2023-02-07T10:16:01.050Z,2.49
2023-02-07T10:18:53.759Z,2.53
2023-02-07T10:21:20.195Z,2.48
2023-02-07T10:23:49.385Z,2.55
2023-02-07T10:26:37.759Z,2.53
2023-02-07T10:29:13.171Z,2.66
2023-02-07T10:31:43.150Z,2.67
2023-02-07T10:34:12.635Z,2.78
2023-02-07T10:36:40.708Z,2.78
2023-02-07T10:39:17.360Z,2.77
2023-02-07T10:41:45.154Z,2.84
2023-02-07T10:44:13.036Z,2.81
2023-02-07T10:46:41.416Z,2.70
2023-02-07T10:49:17.165Z,2.78
2023-02-07T10:51:44.561Z,2.95
2023-02-07T10:54:11.084Z,2.97
2023-02-07T10:56:42.981Z,3.01
2023-02-07T10:59:29.946Z,3.13
2023-02-07T11:01:56.568Z,3.21
2023-02-07T11:04:23.929Z,3.16
2023-02-07T11:06:59.958Z,3.25
2023-02-07T11:09:27.050Z,3.31
2023-02-07T11:11:54.724Z,3.32
2023-02-07T11:14:26.625Z,3.43
2023-02-07T11:16:54.674Z,3.48
2023-02-07T11:19:24.429Z,3.43
2023-02-07T11:21:51.598Z,3.52
2023-02-07T11:24:25.133Z,3.51
2023-02-07T11:26:51.819Z,3.64
2023-02-07T11:29:19.313Z,3.69
2023-02-07T11:31:46.607Z,3.69
2023-02-07T11:34:29.020Z,3.70
2023-02-07T11:37:07.858Z,3.70
2023-02-07T11:39:34.270Z,3.76
2023-02-07T11:42:01.314Z,3.83
2023-02-07T11:44:30.496Z,3.82
2023-02-07T11:47:02.789Z,3.93
2023-02-07T11:49:32.486Z,3.90
2023-02-07T11:52:00.034Z,3.95
2023-02-07T11:54:26.844Z,4.03
2023-02-07T11:56:59.912Z,4.10
2023-02-07T11:59:28.082Z,4.01
2023-02-07T12:01:56.562Z,4.10
2023-02-07T12:04:37.625Z,4.21
2023-02-07T12:07:14.906Z,4.06
2023-02-07T12:09:47.386Z,4.22
2023-02-07T12:12:18.596Z,4.28
2023-02-07T12:14:50.808Z,4.34
2023-02-07T12:17:20.946Z,4.30
2023-02-07T12:20:13.735Z,4.26
2023-02-07T12:22:58.778Z,4.34
2023-02-07T12:25:36.235Z,4.36
2023-02-07T12:28:11.744Z,4.45
2023-02-07T12:30:41.925Z,4.53
2023-02-07T12:33:23.713Z,4.49
2023-02-07T12:36:01.850Z,4.60
2023-02-07T12:38:35.348Z,4.61
2023-02-07T12:41:16.966Z,4.52
2023-02-07T12:43:51.344Z,4.56
2023-02-07T12:46:36.814Z,4.61
2023-02-07T12:49:03.242Z,4.63
2023-02-07T12:51:48.424Z,4.66
2023-02-07T12:54:34.996Z,4.73
2023-02-07T12:57:01.375Z,4.70
2023-02-07T12:59:33.888Z,4.82
2023-02-07T13:02:19.105Z,4.73
2023-02-07T13:04:54.340Z,4.65
2023-02-07T13:07:26.494Z,4.86
2023-02-07T13:10:11.358Z,4.96
2023-02-07T13:12:56.944Z,4.82
2023-02-07T13:15:46.573Z,4.92
2023-02-07T13:18:12.933Z,4.95
2023-02-07T13:21:06.345Z,4.91
2023-02-07T13:23:34.148Z,4.92
2023-02-07T13:26:02.351Z,5.00
2023-02-07T13:28:31.910Z,5.02
2023-02-07T13:30:59.955Z,5.01
2023-02-07T13:33:52.876Z,5.01
2023-02-07T13:36:22.074Z,5.06
2023-02-07T13:38:58.925Z,5.05
2023-02-07T13:41:43.890Z,5.04
2023-02-07T13:44:10.606Z,5.08
2023-02-07T13:46:46.858Z,5.15
2023-02-07T13:49:32.144Z,5.16
2023-02-07T13:51:58.560Z,5.21
2023-02-07T13:54:43.899Z,5.13
2023-02-07T13:57:57.453Z,5.20
2023-02-07T14:00:25.280Z,5.23
2023-02-07T14:02:53.052Z,5.21
2023-02-07T14:05:27.671Z,5.21
2023-02-07T14:08:14.338Z,5.25
2023-02-07T14:10:54.769Z,5.29
2023-02-07T14:13:23.013Z,5.16
2023-02-07T14:15:54.517Z,5.31
2023-02-07T14:18:34.602Z,5.36
2023-02-07T14:21:02.157Z,5.32
2023-02-07T14:23:48.551Z,5.35
2023-02-07T14:26:50.541Z,5.34
2023-02-07T14:29:19.989Z,5.34
2023-02-07T14:31:49.266Z,5.34
2023-02-07T14:34:20.718Z,5.42
2023-02-07T14:36:50.109Z,5.36
2023-02-07T14:39:16.549Z,5.42
2023-02-07T14:41:43.091Z,5.40
2023-02-07T14:44:22.870Z,5.44
2023-02-07T14:46:51.388Z,5.40
2023-02-07T14:49:20.846Z,5.45
2023-02-07T14:51:58.064Z,5.42
2023-02-07T14:54:30.636Z,5.47
2023-02-07T14:56:56.997Z,5.47
2023-02-07T14:59:28.041Z,5.44
2023-02-07T15:01:54.537Z,5.46
2023-02-07T15:04:20.955Z,5.47
2023-02-07T15:06:48.007Z,5.56
2023-02-07T15:09:19.530Z,5.51
2023-02-07T15:11:49.439Z,5.44
2023-02-07T15:14:22.739Z,5.47
2023-02-07T15:16:49.693Z,5.48
2023-02-07T15:19:26.408Z,5.49
2023-02-07T15:21:52.772Z,5.45
2023-02-07T15:24:25.186Z,5.45
2023-02-07T15:26:56.233Z,5.46
2023-02-07T15:29:26.431Z,5.50
2023-02-07T15:31:53.384Z,5.50
2023-02-07T15:34:31.660Z,5.49
2023-02-07T15:37:14.837Z,5.43
2023-02-07T15:39:41.380Z,5.50
2023-02-07T15:42:09.343Z,5.48
2023-02-07T15:44:46.920Z,5.45
2023-02-07T15:47:28.645Z,5.42
2023-02-07T15:49:59.954Z,5.40
2023-02-07T15:52:37.697Z,5.41
2023-02-07T15:55:05.860Z,5.37
2023-02-07T15:57:36.622Z,5.35
2023-02-07T16:00:14.034Z,5.33
2023-02-07T16:02:47.445Z,5.29
2023-02-07T16:05:24.081Z,5.27
2023-02-07T16:07:51.198Z,5.25
2023-02-07T16:10:20.171Z,5.23
2023-02-07T16:12:50.338Z,5.20
2023-02-07T16:15:26.047Z,5.18
2023-02-07T16:17:52.458Z,5.16
2023-02-07T16:20:18.943Z,5.09
2023-02-07T16:22:46.397Z,5.08
2023-02-07T16:25:15.130Z,5.05
2023-02-07T16:27:43.648Z,5.02
2023-02-07T16:30:13.792Z,4.85
2023-02-07T16:32:40.229Z,4.56
2023-02-07T16:35:15.447Z,4.55
2023-02-07T16:37:41.834Z,5.04
2023-02-07T16:40:09.201Z,5.37
2023-02-07T16:42:35.873Z,5.68
2023-02-07T16:45:02.334Z,5.79
2023-02-07T16:47:28.741Z,5.87
2023-02-07T16:49:55.160Z,5.93
2023-02-07T16:52:21.552Z,5.97
2023-02-07T16:54:48.046Z,6.05
2023-02-07T16:57:15.051Z,6.02
2023-02-07T16:59:41.457Z,5.94
2023-02-07T17:02:14.983Z,5.44
2023-02-07T17:04:41.500Z,5.82
2023-02-07T17:07:09.864Z,6.04
2023-02-07T17:09:36.404Z,6.22
2023-02-07T17:12:02.910Z,6.29
2023-02-07T17:14:29.529Z,6.34
2023-02-07T17:16:56.112Z,6.33
2023-02-07T17:19:23.997Z,6.37
2023-02-07T17:21:51.453Z,6.29
2023-02-07T17:24:17.959Z,6.32
2023-02-07T17:26:46.270Z,6.42
2023-02-07T17:29:13.557Z,6.45
2023-02-07T17:31:40.462Z,6.46
2023-02-07T17:34:07.015Z,6.46
2023-02-07T17:36:36.730Z,6.41
2023-02-07T17:39:03.664Z,6.44
2023-02-07T17:41:31.347Z,6.39
2023-02-07T17:43:57.892Z,6.46
2023-02-07T17:46:25.479Z,6.37
2023-02-07T17:48:52.345Z,6.38
2023-02-07T17:51:20.735Z,6.34
2023-02-07T17:53:47.199Z,6.33
2023-02-07T17:56:24.154Z,6.29
2023-02-07T17:58:54.407Z,6.32
2023-02-07T18:01:21.430Z,6.23
2023-02-07T18:03:49.236Z,6.25
2023-02-07T18:06:16.412Z,6.19
2023-02-07T18:08:43.210Z,6.20
2023-02-07T18:11:12.321Z,6.20
2023-02-07T18:13:38.917Z,6.14
2023-02-07T18:16:06.211Z,6.09
2023-02-07T18:18:32.701Z,6.14
2023-02-07T18:20:59.122Z,6.03
2023-02-07T18:23:25.531Z,6.01
2023-02-07T18:25:54.349Z,6.01
2023-02-07T18:28:20.862Z,5.95
2023-02-07T18:30:49.186Z,5.90
2023-02-07T18:33:17.055Z,5.85
2023-02-07T18:35:43.485Z,5.81
2023-02-07T18:38:09.893Z,5.78
2023-02-07T18:40:36.272Z,5.79
2023-02-07T18:43:02.712Z,5.70
2023-02-07T18:45:29.150Z,5.69
2023-02-07T18:47:55.576Z,5.68
2023-02-07T18:50:22.141Z,5.68
2023-02-07T18:52:48.933Z,5.63
2023-02-07T18:55:15.388Z,5.57
2023-02-07T18:57:41.785Z,5.64
2023-02-07T19:00:09.471Z,5.60
2023-02-07T19:02:36.423Z,5.57
2023-02-07T19:05:03.011Z,5.52
2023-02-07T19:07:29.386Z,5.45
2023-02-07T19:09:55.788Z,5.48
2023-02-07T19:12:22.239Z,5.40
2023-02-07T19:14:48.641Z,5.44
2023-02-07T19:17:16.229Z,5.31
2023-02-07T19:19:43.169Z,5.32
2023-02-07T19:22:09.657Z,5.36
2023-02-07T19:24:37.002Z,5.32
2023-02-07T19:27:04.912Z,5.25
2023-02-07T19:29:33.127Z,5.25
2023-02-07T19:32:07.407Z,5.20
2023-02-07T19:34:34.780Z,5.16
2023-02-07T19:37:02.317Z,5.09
2023-02-07T19:39:28.905Z,5.06
2023-02-07T19:41:55.315Z,5.04
2023-02-07T19:44:21.781Z,5.03
2023-02-07T19:46:48.554Z,4.99
2023-02-07T19:49:15.256Z,4.99
2023-02-07T19:51:41.916Z,5.00
2023-02-07T19:54:08.640Z,4.93
2023-02-07T19:56:36.499Z,4.95
2023-02-07T19:59:03.865Z,4.87
2023-02-07T20:01:31.045Z,4.93
2023-02-07T20:03:58.272Z,4.93
2023-02-07T20:06:29.061Z,4.91
2023-02-07T20:08:56.177Z,4.86
2023-02-07T20:11:22.735Z,4.79
2023-02-07T20:13:51.738Z,4.76
2023-02-07T20:16:19.843Z,4.74
2023-02-07T20:18:46.370Z,4.72
2023-02-07T20:21:13.992Z,4.68
2023-02-07T20:23:42.043Z,4.72
2023-02-07T20:26:11.007Z,4.68
2023-02-07T20:28:38.220Z,4.61
2023-02-07T20:31:09.061Z,4.56
2023-02-07T20:33:36.264Z,4.53
2023-02-07T20:36:02.824Z,4.53
2023-02-07T20:38:29.260Z,4.47
2023-02-07T20:40:57.406Z,4.43
2023-02-07T20:43:23.878Z,4.43
2023-02-07T20:45:50.317Z,4.42
2023-02-07T20:48:16.718Z,4.40
2023-02-07T20:50:43.135Z,4.35
2023-02-07T20:53:09.602Z,4.31
2023-02-07T20:55:36.450Z,4.29
2023-02-07T20:58:02.838Z,4.34
2023-02-07T21:00:29.282Z,4.31
2023-02-07T21:02:55.699Z,4.28
2023-02-07T21:05:22.189Z,4.26
2023-02-07T21:07:48.638Z,4.20
2023-02-07T21:10:15.175Z,4.20
2023-02-07T21:12:41.566Z,4.17
2023-02-07T21:15:08.224Z,4.18
2023-02-07T21:17:36.701Z,4.18
2023-02-07T21:20:03.670Z,4.10
2023-02-07T21:22:30.129Z,4.05
2023-02-07T21:24:56.508Z,4.07
2023-02-07T21:27:22.951Z,4.00
2023-02-07T21:29:49.340Z,3.96
2023-02-07T21:32:15.748Z,3.98
2023-02-07T21:34:42.263Z,3.94
2023-02-07T21:37:08.742Z,3.91
2023-02-07T21:39:35.198Z,3.87
2023-02-07T21:42:01.591Z,3.83
2023-02-07T21:44:29.255Z,3.82
2023-02-07T21:46:57.151Z,3.84
2023-02-07T21:49:24.090Z,3.81
2023-02-07T21:51:53.369Z,3.75
2023-02-07T21:54:19.835Z,3.74
2023-02-07T21:56:46.324Z,3.73
2023-02-07T21:59:17.332Z,3.74
2023-02-07T22:01:44.777Z,3.68
2023-02-07T22:04:11.502Z,3.64
2023-02-07T22:06:41.701Z,3.62
2023-02-07T22:09:08.432Z,3.69
2023-02-07T22:11:35.562Z,3.61
2023-02-07T22:14:02.438Z,3.60
2023-02-07T22:16:29.801Z,3.59
2023-02-07T22:18:57.556Z,3.53
2023-02-07T22:21:25.216Z,3.51
2023-02-07T22:23:52.339Z,3.49
2023-02-07T22:26:19.097Z,3.49
2023-02-07T22:28:45.864Z,3.48
2023-02-07T22:31:13.631Z,3.43
2023-02-07T22:33:40.409Z,3.43
2023-02-07T22:36:14.235Z,3.39
2023-02-07T22:38:41.734Z,3.41
2023-02-07T22:41:08.838Z,3.34
2023-02-07T22:43:35.796Z,3.37
2023-02-07T22:46:03.058Z,3.33
2023-02-07T22:48:29.570Z,3.29
2023-02-07T22:50:56.063Z,3.31
2023-02-07T22:53:22.576Z,3.27
2023-02-07T22:55:49.017Z,3.24
2023-02-07T22:58:15.481Z,3.24
2023-02-07T23:00:42.429Z,3.19
2023-02-07T23:03:09.000Z,3.19
2023-02-07T23:05:39.108Z,3.18
2023-02-07T23:08:06.272Z,3.15
2023-02-07T23:10:32.734Z,3.10
2023-02-07T23:13:00.212Z,3.11
2023-02-07T23:15:26.905Z,3.05
2023-02-07T23:17:53.320Z,3.06
2023-02-07T23:20:19.814Z,3.06
2023-02-07T23:22:46.196Z,3.02
2023-02-07T23:25:15.843Z,3.00
2023-02-07T23:27:45.401Z,2.98
2023-02-07T23:30:13.492Z,2.99
2023-02-07T23:32:40.280Z,2.96
2023-02-07T23:35:07.100Z,2.95
2023-02-07T23:37:33.678Z,2.91
2023-02-07T23:40:00.144Z,2.93
2023-02-07T23:42:26.678Z,2.94
2023-02-07T23:44:53.359Z,2.89
2023-02-07T23:47:20.236Z,2.79
2023-02-07T23:49:46.713Z,2.80
2023-02-07T23:52:13.172Z,2.84
2023-02-07T23:54:39.585Z,2.75
2023-02-07T23:57:05.975Z,2.73
2023-02-07T23:59:32.588Z,2.75
